Time;durP1;ratioP1;P1;durP2;ratioP2;P2;SDS_P1;SDS_P2;PMS_P1;PMS_P2;Temp;Humidity;BMP_temperature;BMP_pressure;BME280_temperature;BME280_humidity;BME280_pressure;Samples;Min_cycle;Max_cycle;Signal;HPM_P1;HPM_P2
2021/10/10 00:02:23;;;;;;;;;62.00;49.25;;;;;;;;5159779;27;8766;-75
2021/10/10 00:04:49;;;;;;;;;59.50;48.00;;;;;;;;5158359;27;8821;-76
2021/10/10 00:07:14;;;;;;;;;58.25;49.00;;;;;;;;5159642;27;8777;-76
2021/10/10 00:09:40;;;;;;;;;57.75;47.25;;;;;;;;5159583;27;9553;-76
2021/10/10 00:12:06;;;;;;;;;58.00;47.75;;;;;;;;5158261;27;8785;-75
2021/10/10 00:14:31;;;;;;;;;58.25;47.50;;;;;;;;5159691;27;11061;-76
2021/10/10 00:16:57;;;;;;;;;60.75;49.75;;;;;;;;5158670;27;11233;-76
2021/10/10 00:19:22;;;;;;;;;56.75;46.75;;;;;;;;5159504;27;8793;-75
2021/10/10 00:21:47;;;;;;;;;55.75;45.50;;;;;;;;5159479;27;8774;-75
2021/10/10 00:24:12;;;;;;;;;58.50;46.75;;;;;;;;5159369;27;8830;-76
2021/10/10 00:26:38;;;;;;;;;52.75;43.50;;;;;;;;5159277;27;8782;-75
2021/10/10 00:29:03;;;;;;;;;54.00;44.75;;;;;;;;5159501;27;8828;-75
2021/10/10 00:31:28;;;;;;;;;56.50;46.25;;;;;;;;5140436;27;9535;-76
2021/10/10 00:33:53;;;;;;;;;50.75;42.75;;;;;;;;5137318;27;8796;-75
2021/10/10 00:36:18;;;;;;;;;48.25;40.50;;;;;;;;5138597;27;8776;-76
2021/10/10 00:38:44;;;;;;;;;53.00;44.25;;;;;;;;5138542;27;8885;-75
2021/10/10 00:41:09;;;;;;;;;46.75;38.75;;;;;;;;5138279;27;8872;-76
2021/10/10 00:43:34;;;;;;;;;51.00;43.00;;;;;;;;5138316;27;8818;-75
2021/10/10 00:45:59;;;;;;;;;47.50;40.25;;;;;;;;5138360;27;8808;-76
2021/10/10 00:48:25;;;;;;;;;48.50;41.00;;;;;;;;5136919;27;8792;-75
2021/10/10 00:50:50;;;;;;;;;48.25;40.25;;;;;;;;5136651;27;8800;-76
2021/10/10 00:53:16;;;;;;;;;53.50;44.00;;;;;;;;5138209;27;8788;-75
2021/10/10 00:55:42;;;;;;;;;56.50;45.00;;;;;;;;5136749;27;9686;-76
2021/10/10 00:58:07;;;;;;;;;56.25;44.75;;;;;;;;5138099;27;10946;-75
2021/10/10 01:00:32;;;;;;;;;55.75;45.00;;;;;;;;5136730;27;8863;-76
2021/10/10 01:02:59;;;;;;;;;58.00;46.25;;;;;;;;5138167;27;8804;-76
2021/10/10 01:05:24;;;;;;;;;56.25;46.25;;;;;;;;5138056;27;8788;-75
2021/10/10 01:07:50;;;;;;;;;57.50;45.00;;;;;;;;5137895;27;10997;-75
2021/10/10 01:10:15;;;;;;;;;52.00;43.00;;;;;;;;5137758;27;8788;-75
2021/10/10 01:12:42;;;;;;;;;47.00;40.00;;;;;;;;5136557;27;8804;-75
2021/10/10 01:15:08;;;;;;;;;54.25;44.75;;;;;;;;5136590;27;8796;-75
2021/10/10 01:17:33;;;;;;;;;54.00;44.50;;;;;;;;5137417;27;10837;-75
2021/10/10 01:19:59;;;;;;;;;54.00;44.25;;;;;;;;5137916;27;8817;-75
2021/10/10 01:22:25;;;;;;;;;52.50;42.00;;;;;;;;5137652;27;8882;-76
2021/10/10 01:24:50;;;;;;;;;49.50;40.50;;;;;;;;5136147;27;8820;-76
2021/10/10 01:27:15;;;;;;;;;42.50;36.75;;;;;;;;5137753;27;8785;-75
2021/10/10 01:29:41;;;;;;;;;50.75;42.75;;;;;;;;5138534;27;8808;-75
2021/10/10 01:32:06;;;;;;;;;51.50;42.25;;;;;;;;5158504;27;8782;-78
2021/10/10 01:34:31;;;;;;;;;49.25;40.50;;;;;;;;5157015;27;8824;-75
2021/10/10 01:36:57;;;;;;;;;47.50;38.75;;;;;;;;5158377;27;8782;-76
2021/10/10 01:39:22;;;;;;;;;48.25;41.00;;;;;;;;5156775;27;8841;-76
2021/10/10 01:41:47;;;;;;;;;45.75;39.25;;;;;;;;5156884;27;8811;-75
2021/10/10 01:44:13;;;;;;;;;46.50;40.00;;;;;;;;5157918;27;8868;-76
2021/10/10 01:46:39;;;;;;;;;51.25;42.50;;;;;;;;5158272;27;8699;-76
2021/10/10 01:49:04;;;;;;;;;45.75;38.50;;;;;;;;5158056;27;10785;-76
2021/10/10 01:51:29;;;;;;;;;46.00;38.00;;;;;;;;5158075;27;8886;-75
2021/10/10 01:53:55;;;;;;;;;50.00;40.75;;;;;;;;5158048;27;8785;-75
2021/10/10 01:56:20;;;;;;;;;47.75;37.75;;;;;;;;5158027;27;8813;-75
2021/10/10 01:58:45;;;;;;;;;43.75;37.75;;;;;;;;5158081;27;8778;-76
2021/10/10 02:01:10;;;;;;;;;45.50;39.00;;;;;;;;5158144;27;8801;-75
2021/10/10 02:03:35;;;;;;;;;48.00;39.25;;;;;;;;5156384;27;8904;-76
2021/10/10 02:06:01;;;;;;;;;50.75;39.00;;;;;;;;5157964;27;8829;-75
2021/10/10 02:08:26;;;;;;;;;46.50;39.00;;;;;;;;5157975;27;8770;-75
2021/10/10 02:10:51;;;;;;;;;47.75;40.25;;;;;;;;5157787;27;8804;-76
2021/10/10 02:13:16;;;;;;;;;46.75;39.25;;;;;;;;5156624;27;8790;-75
2021/10/10 02:15:41;;;;;;;;;48.25;38.25;;;;;;;;5157933;27;9611;-75
2021/10/10 02:18:07;;;;;;;;;46.25;38.50;;;;;;;;5157433;27;8814;-75
2021/10/10 02:20:33;;;;;;;;;51.75;42.50;;;;;;;;5157812;27;8778;-76
2021/10/10 02:22:58;;;;;;;;;49.50;40.50;;;;;;;;5157693;27;8790;-76
2021/10/10 02:25:23;;;;;;;;;52.75;42.25;;;;;;;;5156178;27;8828;-75
2021/10/10 02:27:48;;;;;;;;;49.75;42.25;;;;;;;;5157812;27;8762;-75
2021/10/10 02:30:14;;;;;;;;;49.25;40.75;;;;;;;;5153600;27;8840;-75
2021/10/10 02:32:39;;;;;;;;;49.50;40.00;;;;;;;;5156225;27;8809;-75
2021/10/10 02:35:05;;;;;;;;;53.25;42.25;;;;;;;;5157692;27;8805;-75
2021/10/10 02:37:30;;;;;;;;;48.50;40.75;;;;;;;;5157771;27;8790;-75
2021/10/10 02:39:55;;;;;;;;;44.25;37.75;;;;;;;;5157836;27;8808;-75
2021/10/10 02:42:21;;;;;;;;;46.25;39.50;;;;;;;;5159752;27;9702;-75
2021/10/10 02:44:46;;;;;;;;;51.00;43.00;;;;;;;;5161064;27;8886;-75
2021/10/10 02:47:11;;;;;;;;;49.75;40.00;;;;;;;;5161074;27;8790;-75
2021/10/10 02:49:36;;;;;;;;;49.00;39.50;;;;;;;;5161001;27;8858;-75
2021/10/10 02:52:02;;;;;;;;;45.50;39.50;;;;;;;;5160939;27;8824;-76
2021/10/10 02:54:27;;;;;;;;;47.25;40.00;;;;;;;;5159274;27;8802;-75
2021/10/10 02:56:52;;;;;;;;;48.00;39.00;;;;;;;;5145791;27;9692;-75
2021/10/10 02:59:17;;;;;;;;;42.50;37.50;;;;;;;;5140158;27;8784;-75
2021/10/10 03:01:43;;;;;;;;;48.50;40.00;;;;;;;;5140104;27;8808;-76
2021/10/10 03:04:08;;;;;;;;;43.75;36.75;;;;;;;;5139994;27;8804;-76
2021/10/10 03:06:33;;;;;;;;;45.50;36.25;;;;;;;;5139829;27;8867;-76
2021/10/10 03:08:58;;;;;;;;;46.25;38.50;;;;;;;;5138558;27;9633;-75
2021/10/10 03:11:24;;;;;;;;;45.50;38.00;;;;;;;;5139667;27;8877;-75
2021/10/10 03:13:49;;;;;;;;;45.25;38.00;;;;;;;;5139986;27;8776;-75
2021/10/10 03:16:14;;;;;;;;;46.00;39.50;;;;;;;;5139700;27;8773;-76
2021/10/10 03:18:39;;;;;;;;;47.00;40.00;;;;;;;;5139605;27;8872;-76
2021/10/10 03:21:06;;;;;;;;;44.75;38.75;;;;;;;;5139861;27;8885;-76
2021/10/10 03:23:31;;;;;;;;;48.25;39.25;;;;;;;;5139456;27;8788;-75
2021/10/10 03:25:56;;;;;;;;;47.50;40.00;;;;;;;;5139346;27;10290;-76
2021/10/10 03:28:21;;;;;;;;;47.00;38.75;;;;;;;;5139743;27;8788;-76
2021/10/10 03:30:46;;;;;;;;;39.75;34.00;;;;;;;;5152062;27;8805;-75
2021/10/10 03:33:12;;;;;;;;;42.00;37.00;;;;;;;;5159228;27;8865;-75
2021/10/10 03:35:37;;;;;;;;;44.25;36.50;;;;;;;;5158979;27;8944;-76
2021/10/10 03:38:02;;;;;;;;;43.00;37.00;;;;;;;;5160163;27;8826;-75
2021/10/10 03:40:28;;;;;;;;;43.50;38.25;;;;;;;;5158632;27;8794;-75
2021/10/10 03:42:53;;;;;;;;;40.00;35.75;;;;;;;;5158989;27;8790;-76
2021/10/10 03:45:18;;;;;;;;;46.25;40.00;;;;;;;;5160231;27;8810;-76
2021/10/10 03:47:43;;;;;;;;;47.50;37.75;;;;;;;;5158800;27;8789;-75
2021/10/10 03:50:08;;;;;;;;;41.00;37.00;;;;;;;;5158551;27;8806;-76
2021/10/10 03:52:34;;;;;;;;;46.00;38.50;;;;;;;;5159174;27;8770;-75
2021/10/10 03:57:43;;;;;;;;;39.50;34.75;;;;;;;;5159910;27;8766;-75
2021/10/10 04:00:12;;;;;;;;;48.25;39.25;;;;;;;;5159818;27;10052;-75
2021/10/10 04:02:37;;;;;;;;;50.50;39.75;;;;;;;;5158576;27;8790;-75
2021/10/10 04:05:04;;;;;;;;;42.50;37.50;;;;;;;;5159683;27;10198;-75
2021/10/10 04:07:29;;;;;;;;;43.50;36.00;;;;;;;;5159607;27;8766;-75
2021/10/10 04:09:55;;;;;;;;;43.25;37.25;;;;;;;;5158283;27;9900;-76
2021/10/10 04:12:20;;;;;;;;;42.00;36.50;;;;;;;;5159699;27;8885;-75
2021/10/10 04:14:45;;;;;;;;;40.50;35.75;;;;;;;;5159647;27;8782;-75
2021/10/10 04:17:10;;;;;;;;;44.75;37.75;;;;;;;;5157809;27;8863;-76
2021/10/10 04:19:36;;;;;;;;;44.50;36.75;;;;;;;;5158423;27;8801;-76
2021/10/10 04:22:01;;;;;;;;;41.00;36.75;;;;;;;;5158175;27;8832;-76
2021/10/10 04:24:27;;;;;;;;;42.25;35.00;;;;;;;;5157752;27;8813;-76
2021/10/10 04:26:52;;;;;;;;;40.25;35.75;;;;;;;;5159511;27;8812;-76
2021/10/10 04:29:17;;;;;;;;;43.50;37.50;;;;;;;;5159435;27;8782;-76
2021/10/10 04:31:43;;;;;;;;;41.00;36.75;;;;;;;;5116651;27;8799;-75
2021/10/10 04:34:10;;;;;;;;;42.50;35.75;;;;;;;;5118082;27;8779;-76
2021/10/10 04:36:35;;;;;;;;;37.75;34.50;;;;;;;;5117833;27;8775;-75
2021/10/10 04:39:00;;;;;;;;;44.25;38.50;;;;;;;;5118120;27;10137;-76
2021/10/10 04:41:25;;;;;;;;;44.00;35.50;;;;;;;;5117767;27;8787;-75
2021/10/10 04:43:51;;;;;;;;;48.25;38.50;;;;;;;;5117772;27;8775;-76
2021/10/10 04:46:16;;;;;;;;;40.25;34.75;;;;;;;;5117894;27;8783;-76
2021/10/10 04:48:41;;;;;;;;;47.50;37.75;;;;;;;;5117717;27;8871;-76
2021/10/10 04:51:06;;;;;;;;;46.50;37.50;;;;;;;;5133349;27;9235;-75
2021/10/10 04:53:32;;;;;;;;;47.25;38.00;;;;;;;;5116312;28;9264;-76
2021/10/10 04:55:57;;;;;;;;;40.00;36.00;;;;;;;;5115941;28;8856;-75
2021/10/10 04:58:22;;;;;;;;;46.75;39.00;;;;;;;;5117614;27;8815;-75
2021/10/10 05:00:47;;;;;;;;;48.75;40.75;;;;;;;;5117585;27;8821;-75
2021/10/10 05:03:12;;;;;;;;;47.75;36.75;;;;;;;;5117575;27;8815;-75
2021/10/10 05:05:41;;;;;;;;;37.75;34.75;;;;;;;;5136299;27;8840;-75
2021/10/10 05:08:07;;;;;;;;;41.75;34.00;;;;;;;;5137991;27;8756;-76
2021/10/10 05:10:32;;;;;;;;;39.50;35.75;;;;;;;;5117918;27;10180;-75
2021/10/10 05:12:57;;;;;;;;;43.50;38.25;;;;;;;;5117353;27;8830;-75
2021/10/10 05:15:22;;;;;;;;;38.75;35.75;;;;;;;;5115922;28;8787;-75
2021/10/10 05:17:47;;;;;;;;;40.00;36.00;;;;;;;;5117052;27;8940;-75
2021/10/10 05:20:13;;;;;;;;;39.00;34.50;;;;;;;;5117284;27;8996;-76
2021/10/10 05:22:38;;;;;;;;;41.75;37.75;;;;;;;;5131815;27;8889;-78
2021/10/10 05:25:03;;;;;;;;;39.25;35.00;;;;;;;;5136301;27;8804;-78
2021/10/10 05:27:29;;;;;;;;;41.00;36.75;;;;;;;;5136190;27;8773;-79
2021/10/10 05:29:54;;;;;;;;;45.50;39.25;;;;;;;;5134038;27;8793;-78
2021/10/10 05:32:19;;;;;;;;;40.75;36.75;;;;;;;;5158413;27;8774;-78
2021/10/10 05:34:44;;;;;;;;;46.50;38.00;;;;;;;;5158215;27;8817;-78
2021/10/10 05:37:10;;;;;;;;;43.50;39.00;;;;;;;;5158141;27;8765;-76
2021/10/10 05:39:35;;;;;;;;;39.00;35.75;;;;;;;;5156790;27;9649;-75
2021/10/10 05:42:00;;;;;;;;;43.00;38.00;;;;;;;;5157022;27;8822;-76
2021/10/10 05:44:26;;;;;;;;;45.75;37.75;;;;;;;;5156713;27;9653;-75
2021/10/10 05:46:51;;;;;;;;;36.25;33.25;;;;;;;;5156907;27;8900;-75
2021/10/10 05:49:17;;;;;;;;;36.25;34.00;;;;;;;;5156418;27;8782;-78
2021/10/10 05:51:46;;;;;;;;;44.25;37.50;;;;;;;;5156565;27;8798;-80
2021/10/10 05:54:13;;;;;;;;;41.00;37.25;;;;;;;;5151809;27;8804;-78
2021/10/10 05:56:39;;;;;;;;;40.50;35.00;;;;;;;;5134316;27;10062;-79
2021/10/10 05:59:07;;;;;;;;;38.25;33.75;;;;;;;;5137275;27;10183;-79
2021/10/10 06:01:32;;;;;;;;;35.50;34.25;;;;;;;;5121433;27;8791;-76
2021/10/10 06:03:58;;;;;;;;;39.75;34.25;;;;;;;;5115048;28;10003;-76
2021/10/10 06:06:23;;;;;;;;;40.00;33.00;;;;;;;;5116514;27;8787;-76
2021/10/10 06:08:48;;;;;;;;;42.25;36.75;;;;;;;;5116600;28;8771;-75
2021/10/10 06:11:13;;;;;;;;;41.50;37.75;;;;;;;;5116375;27;8780;-76
2021/10/10 06:13:39;;;;;;;;;40.25;36.25;;;;;;;;5116513;27;8886;-79
2021/10/10 06:16:04;;;;;;;;;44.50;38.00;;;;;;;;5118378;28;8879;-79
2021/10/10 06:18:30;;;;;;;;;49.25;38.00;;;;;;;;5119235;27;8814;-80
2021/10/10 06:20:55;;;;;;;;;40.00;35.00;;;;;;;;5119965;27;9585;-79
2021/10/10 06:23:20;;;;;;;;;44.00;38.75;;;;;;;;5119781;27;8862;-81
2021/10/10 06:25:45;;;;;;;;;40.00;35.75;;;;;;;;5118288;28;8835;-77
2021/10/10 06:28:11;;;;;;;;;44.25;38.00;;;;;;;;5128723;27;8939;-76
2021/10/10 06:30:36;;;;;;;;;48.00;38.75;;;;;;;;5151705;27;8790;-78
2021/10/10 06:33:01;;;;;;;;;53.00;43.50;;;;;;;;5150811;27;8812;-83
2021/10/10 06:35:26;;;;;;;;;43.75;38.25;;;;;;;;5137370;27;8792;-78
2021/10/10 06:37:51;;;;;;;;;47.50;38.50;;;;;;;;5137569;27;8830;-82
2021/10/10 06:40:17;;;;;;;;;41.75;37.25;;;;;;;;5148260;27;8777;-82
2021/10/10 06:42:42;;;;;;;;;44.75;37.25;;;;;;;;5152275;27;8815;-84
2021/10/10 06:45:08;;;;;;;;;44.25;38.00;;;;;;;;5146226;27;8831;-84
2021/10/10 06:47:33;;;;;;;;;44.75;38.75;;;;;;;;5151122;27;8857;-83
2021/10/10 06:49:58;;;;;;;;;43.25;38.25;;;;;;;;5151011;27;8781;-82
2021/10/10 06:52:23;;;;;;;;;41.75;36.00;;;;;;;;5141915;27;8796;-80
2021/10/10 06:54:49;;;;;;;;;48.75;40.75;;;;;;;;5138903;27;8796;-79
2021/10/10 06:57:14;;;;;;;;;42.50;36.00;;;;;;;;5140171;27;9589;-80
2021/10/10 06:59:39;;;;;;;;;34.75;33.00;;;;;;;;5142841;27;8784;-83
2021/10/10 07:02:04;;;;;;;;;47.25;38.25;;;;;;;;5142775;27;8868;-84
2021/10/10 07:04:29;;;;;;;;;47.00;37.75;;;;;;;;5141824;27;9049;-84
2021/10/10 07:06:55;;;;;;;;;48.50;38.00;;;;;;;;5145905;27;8800;-83
2021/10/10 07:09:20;;;;;;;;;42.00;37.00;;;;;;;;5155723;27;8814;-80
2021/10/10 07:11:45;;;;;;;;;59.00;47.75;;;;;;;;5146095;27;8796;-82
2021/10/10 07:14:10;;;;;;;;;66.25;53.00;;;;;;;;5145250;27;9546;-81
2021/10/10 07:16:36;;;;;;;;;68.25;53.75;;;;;;;;5141279;27;8902;-80
2021/10/10 07:19:02;;;;;;;;;57.25;46.75;;;;;;;;5138428;27;8836;-79
2021/10/10 07:26:19;;;;;;;;;54.75;45.00;;;;;;;;5139008;27;9539;-82
2021/10/10 07:28:44;;;;;;;;;57.50;47.00;;;;;;;;5139066;27;9742;-80
2021/10/10 07:31:10;;;;;;;;;55.50;44.25;;;;;;;;5154816;27;10938;-82
2021/10/10 07:33:35;;;;;;;;;51.50;43.25;;;;;;;;5138289;27;8933;-84
2021/10/10 07:36:00;;;;;;;;;59.50;48.00;;;;;;;;5136882;27;8862;-81
2021/10/10 07:38:25;;;;;;;;;56.75;47.00;;;;;;;;5138156;27;8820;-85
2021/10/10 07:40:51;;;;;;;;;60.00;48.25;;;;;;;;5139346;27;8857;-84
2021/10/10 07:43:16;;;;;;;;;56.50;47.00;;;;;;;;5139660;27;8816;-84
2021/10/10 07:45:42;;;;;;;;;58.75;47.00;;;;;;;;5137277;27;8816;-85
2021/10/10 07:48:09;;;;;;;;;55.25;46.25;;;;;;;;5138735;27;8873;-83
2021/10/10 07:50:34;;;;;;;;;54.00;46.00;;;;;;;;5138609;27;10869;-82
2021/10/10 07:53:00;;;;;;;;;59.00;47.75;;;;;;;;5138396;27;10989;-80
2021/10/10 07:55:25;;;;;;;;;53.75;43.00;;;;;;;;5137533;27;8966;-80
2021/10/10 07:57:50;;;;;;;;;54.75;45.75;;;;;;;;5137607;27;8796;-80
2021/10/10 08:00:15;;;;;;;;;53.25;43.25;;;;;;;;5137457;27;8831;-83
2021/10/10 08:02:51;;;;;;;;;53.25;44.25;;;;;;;;5145493;27;8776;-84
2021/10/10 08:05:17;;;;;;;;;53.00;44.50;;;;;;;;5141089;27;9445;-83
2021/10/10 08:07:42;;;;;;;;;52.50;42.50;;;;;;;;5145129;27;10706;-83
2021/10/10 08:10:08;;;;;;;;;53.00;41.50;;;;;;;;5148841;27;11498;-83
2021/10/10 08:12:33;;;;;;;;;47.00;39.75;;;;;;;;5144842;27;8796;-83
2021/10/10 08:14:58;;;;;;;;;45.25;38.00;;;;;;;;5118518;27;8854;-80
2021/10/10 08:17:23;;;;;;;;;44.25;37.75;;;;;;;;5117829;27;8903;-80
2021/10/10 08:19:49;;;;;;;;;47.25;41.00;;;;;;;;5117763;27;8926;-79
2021/10/10 08:22:14;;;;;;;;;46.75;40.50;;;;;;;;5116959;28;8790;-80
2021/10/10 08:24:39;;;;;;;;;46.50;37.25;;;;;;;;5119986;27;8814;-83
2021/10/10 08:27:05;;;;;;;;;52.00;42.00;;;;;;;;5134759;27;8815;-82
2021/10/10 08:29:33;;;;;;;;;49.50;40.75;;;;;;;;5134608;27;8828;-82
2021/10/10 08:31:58;;;;;;;;;44.50;38.50;;;;;;;;5136121;27;9752;-80
2021/10/10 08:34:24;;;;;;;;;46.00;39.25;;;;;;;;5132430;27;10178;-82
2021/10/10 08:36:49;;;;;;;;;46.25;39.00;;;;;;;;5136328;27;8757;-79
2021/10/10 08:39:14;;;;;;;;;52.00;41.50;;;;;;;;5131335;27;9486;-82
2021/10/10 08:41:44;;;;;;;;;47.00;40.25;;;;;;;;5126827;27;9525;-78
2021/10/10 08:44:15;;;;;;;;;47.75;40.50;;;;;;;;5128748;27;8834;-81
2021/10/10 08:46:41;;;;;;;;;45.50;39.25;;;;;;;;5117406;27;10229;-81
2021/10/10 08:49:06;;;;;;;;;46.00;39.00;;;;;;;;5117221;27;10077;-82
2021/10/10 08:51:40;;;;;;;;;48.75;39.75;;;;;;;;5117317;27;8803;-82
2021/10/10 08:54:06;;;;;;;;;53.75;43.00;;;;;;;;5116922;27;8763;-81
2021/10/10 08:56:31;;;;;;;;;48.25;40.75;;;;;;;;5117139;27;10462;-79
2021/10/10 08:59:35;;;;;;;;;46.25;37.50;;;;;;;;5116927;27;8767;-80
2021/10/10 09:05:46;;;;;;;;;47.00;39.00;;;;;;;;5116055;27;10244;-78
2021/10/10 09:19:02;;;;;;;;;;;;;;;;;;;;;
2021/10/10 09:21:27;;;;;;;;;43.00;36.75;;;;;;;;5093066;28;10080;-82
2021/10/10 09:24:04;;;;;;;;;43.50;37.50;;;;;;;;5112954;27;9772;-80
2021/10/10 09:26:43;;;;;;;;;45.25;38.25;;;;;;;;5132343;27;9853;-78
2021/10/10 09:29:28;;;;;;;;;45.75;39.25;;;;;;;;5132496;27;9701;-77
2021/10/10 09:32:02;;;;;;;;;42.00;35.75;;;;;;;;5115502;27;9827;-78
2021/10/10 09:34:27;;;;;;;;;41.50;35.75;;;;;;;;5116678;27;9561;-78
2021/10/10 09:36:55;;;;;;;;;47.33;37.67;;;;;;;;5116353;27;9558;-80
2021/10/10 09:39:25;;;;;;;;;43.50;38.00;;;;;;;;5116652;27;8783;-81
2021/10/10 09:41:53;;;;;;;;;43.50;36.25;;;;;;;;5133662;27;9787;-78
2021/10/10 09:44:22;;;;;;;;;40.00;35.25;;;;;;;;5135994;27;9793;-81
2021/10/10 09:46:48;;;;;;;;;45.50;38.50;;;;;;;;5137410;27;9624;-82
2021/10/10 09:49:20;;;;;;;;;46.50;38.75;;;;;;;;5136906;27;9712;-82
2021/10/10 09:51:45;;;;;;;;;45.67;37.00;;;;;;;;5135232;27;9632;-80
2021/10/10 09:54:10;;;;;;;;;44.50;38.00;;;;;;;;5137007;27;9612;-80
2021/10/10 09:56:36;;;;;;;;;42.00;35.75;;;;;;;;5137197;27;8865;-78
2021/10/10 09:59:02;;;;;;;;;41.00;35.00;;;;;;;;5137432;27;8799;-76
2021/10/10 10:01:30;;;;;;;;;45.50;37.50;;;;;;;;5135849;27;8796;-80
2021/10/10 10:04:07;;;;;;;;;45.33;38.00;;;;;;;;5137176;27;8806;-77
2021/10/10 10:06:37;;;;;;;;;38.67;33.33;;;;;;;;5137066;27;9680;-77
2021/10/10 10:09:04;;;;;;;;;40.67;35.67;;;;;;;;5137082;27;9471;-77
2021/10/10 10:11:30;;;;;;;;;47.00;37.00;;;;;;;;5137191;27;9415;-78
2021/10/10 10:13:55;;;;;;;;;40.00;34.00;;;;;;;;5135595;27;10427;-79
2021/10/10 10:16:21;;;;;;;;;45.00;37.00;;;;;;;;5137080;27;8911;-78
2021/10/10 10:18:47;;;;;;;;;44.75;38.25;;;;;;;;5135731;27;8912;-78
2021/10/10 10:21:13;;;;;;;;;38.67;33.33;;;;;;;;5136946;27;8785;-81
2021/10/10 10:23:39;;;;;;;;;43.75;37.00;;;;;;;;5136813;27;8880;-81
2021/10/10 10:26:04;;;;;;;;;43.00;36.67;;;;;;;;5135035;27;9646;-81
2021/10/10 10:28:30;;;;;;;;;45.00;37.00;;;;;;;;5136736;27;10354;-82
2021/10/10 10:30:56;;;;;;;;;44.67;38.67;;;;;;;;5150830;27;8789;-82
2021/10/10 10:33:22;;;;;;;;;42.67;35.00;;;;;;;;5157467;27;9388;-82
2021/10/10 10:35:48;;;;;;;;;39.67;34.33;;;;;;;;5157553;27;8782;-76
2021/10/10 10:38:13;;;;;;;;;41.67;36.67;;;;;;;;5155829;27;10021;-77
2021/10/10 10:40:40;;;;;;;;;39.33;34.00;;;;;;;;5148854;27;9611;-78
2021/10/10 10:43:06;;;;;;;;;41.67;35.33;;;;;;;;5115322;27;8788;-78
2021/10/10 10:45:33;;;;;;;;;38.67;33.33;;;;;;;;5115900;27;9442;-79
2021/10/10 10:47:59;;;;;;;;;47.75;38.75;;;;;;;;5113286;28;9387;-79
2021/10/10 10:50:29;;;;;;;;;41.67;35.67;;;;;;;;5113555;27;9839;-78
2021/10/10 10:52:59;;;;;;;;;37.67;34.00;;;;;;;;5115878;27;9298;-79
2021/10/10 10:55:26;;;;;;;;;38.67;34.33;;;;;;;;5114246;28;9261;-79
2021/10/10 10:57:57;;;;;;;;;35.00;31.00;;;;;;;;5115708;27;9389;-79
2021/10/10 11:00:26;;;;;;;;;45.00;35.67;;;;;;;;5114396;27;9031;-79
2021/10/10 11:03:14;;;;;;;;;34.33;31.33;;;;;;;;5127919;27;9127;-82
2021/10/10 11:05:42;;;;;;;;;37.00;33.00;;;;;;;;5127736;27;9069;-80
2021/10/10 11:08:17;;;;;;;;;36.00;33.33;;;;;;;;5123336;27;9024;-79
2021/10/10 11:11:01;;;;;;;;;37.33;34.00;;;;;;;;5119702;27;8992;-79
2021/10/10 11:13:35;;;;;;;;;36.00;32.33;;;;;;;;5139773;27;8995;-79
2021/10/10 11:16:06;;;;;;;;;39.00;33.00;;;;;;;;5139896;27;8915;-78
2021/10/10 11:18:32;;;;;;;;;31.33;30.33;;;;;;;;5139532;27;9962;-79
2021/10/10 11:20:59;;;;;;;;;36.67;32.00;;;;;;;;5138528;27;9025;-79
2021/10/10 11:23:25;;;;;;;;;32.00;30.00;;;;;;;;5138187;27;8772;-78
2021/10/10 11:25:51;;;;;;;;;33.00;30.67;;;;;;;;5138134;27;9695;-79
2021/10/10 11:28:17;;;;;;;;;30.33;28.67;;;;;;;;5138264;27;8789;-79
2021/10/10 11:30:42;;;;;;;;;38.67;32.67;;;;;;;;5150287;27;8789;-79
2021/10/10 11:33:08;;;;;;;;;34.33;30.33;;;;;;;;5133537;27;9171;-78
2021/10/10 11:35:34;;;;;;;;;33.67;30.33;;;;;;;;5127185;27;8812;-78
2021/10/10 11:38:00;;;;;;;;;30.75;29.25;;;;;;;;5123311;27;8781;-79
2021/10/10 11:40:25;;;;;;;;;37.33;30.67;;;;;;;;5125049;27;8766;-79
2021/10/10 11:42:53;;;;;;;;;36.33;31.67;;;;;;;;5124757;27;9073;-79
2021/10/10 11:45:25;;;;;;;;;35.67;30.67;;;;;;;;5118340;27;8775;-79
2021/10/10 11:47:51;;;;;;;;;36.67;32.67;;;;;;;;5127902;27;8902;-79
2021/10/10 11:50:17;;;;;;;;;33.00;31.00;;;;;;;;5137579;27;8947;-79
2021/10/10 11:52:51;;;;;;;;;33.67;30.33;;;;;;;;5138525;27;8903;-81
2021/10/10 11:57:47;;;;;;;;;14.50;12.50;;;;;;;;5118435;27;8775;-82
2021/10/10 12:00:13;;;;;;;;;28.75;28.00;;;;;;;;5118429;27;8771;-81
2021/10/10 12:02:46;;;;;;;;;29.75;29.25;;;;;;;;5118488;27;8786;-83
2021/10/10 12:05:16;;;;;;;;;29.75;29.75;;;;;;;;5127085;27;8815;-84
2021/10/10 12:07:48;;;;;;;;;26.75;26.75;;;;;;;;5122893;27;8800;-87
2021/10/10 12:10:16;;;;;;;;;25.00;23.75;;;;;;;;5126756;27;8779;-83
2021/10/10 12:12:41;;;;;;;;;28.00;26.25;;;;;;;;5122551;27;8822;-86
2021/10/10 12:15:07;;;;;;;;;24.67;24.33;;;;;;;;5126948;27;8815;-87
2021/10/10 12:17:32;;;;;;;;;27.33;25.00;;;;;;;;5118374;27;8823;-86
2021/10/10 12:19:58;;;;;;;;;24.33;23.33;;;;;;;;5117132;27;8881;-85
2021/10/10 12:22:24;;;;;;;;;26.50;26.25;;;;;;;;5123939;27;8791;-84
2021/10/10 12:24:49;;;;;;;;;28.33;24.33;;;;;;;;5128128;27;8939;-85
2021/10/10 12:27:42;;;;;;;;;27.50;24.00;;;;;;;;5126519;27;8814;-83
2021/10/10 12:30:07;;;;;;;;;29.50;29.50;;;;;;;;5129121;27;9773;-82
2021/10/10 12:32:33;;;;;;;;;28.67;28.33;;;;;;;;5129536;27;8815;-80
2021/10/10 12:35:05;;;;;;;;;28.67;27.00;;;;;;;;5126454;27;8885;-82
2021/10/10 12:37:33;;;;;;;;;24.75;23.75;;;;;;;;5120242;27;8827;-85
2021/10/10 12:39:58;;;;;;;;;28.00;25.00;;;;;;;;5112352;27;8787;-84
2021/10/10 12:42:23;;;;;;;;;24.33;23.67;;;;;;;;5116181;27;9551;-84
2021/10/10 12:45:07;;;;;;;;;25.33;24.33;;;;;;;;5116278;27;8887;-83
2021/10/10 12:47:33;;;;;;;;;24.00;24.00;;;;;;;;5115455;27;8822;-83
2021/10/10 12:49:58;;;;;;;;;25.00;24.33;;;;;;;;5119200;27;8799;-86
2021/10/10 12:52:37;;;;;;;;;30.00;28.00;;;;;;;;5117465;27;8791;-84
2021/10/10 12:55:04;;;;;;;;;24.75;24.75;;;;;;;;5116084;27;8799;-83
2021/10/10 12:57:29;;;;;;;;;22.25;22.00;;;;;;;;5116179;27;8791;-82
2021/10/10 12:59:57;;;;;;;;;24.00;23.33;;;;;;;;5115772;27;8799;-84
2021/10/10 13:02:23;;;;;;;;;26.25;25.00;;;;;;;;5116774;27;8787;-85
2021/10/10 13:04:48;;;;;;;;;22.67;22.67;;;;;;;;5118017;27;8826;-85
2021/10/10 13:07:16;;;;;;;;;25.00;23.33;;;;;;;;5115614;27;8852;-86
2021/10/10 13:09:42;;;;;;;;;23.75;21.75;;;;;;;;5119355;27;8791;-85
2021/10/10 13:12:07;;;;;;;;;26.00;25.33;;;;;;;;5116006;27;8913;-84
2021/10/10 13:14:32;;;;;;;;;24.67;22.67;;;;;;;;5116124;27;8831;-82
2021/10/10 13:16:58;;;;;;;;;28.00;28.00;;;;;;;;5127391;27;9775;-83
2021/10/10 13:19:23;;;;;;;;;26.00;25.67;;;;;;;;5121955;27;8831;-81
2021/10/10 13:21:49;;;;;;;;;27.33;26.33;;;;;;;;5130234;27;8853;-80
2021/10/10 13:24:15;;;;;;;;;25.00;24.25;;;;;;;;5125323;27;8970;-83
2021/10/10 13:26:41;;;;;;;;;21.75;19.75;;;;;;;;5125956;27;8787;-81
2021/10/10 13:29:06;;;;;;;;;22.67;20.33;;;;;;;;5124809;27;8812;-82
2021/10/10 13:31:33;;;;;;;;;19.67;19.33;;;;;;;;5133567;27;8818;-82
2021/10/10 13:33:58;;;;;;;;;25.25;22.00;;;;;;;;5121428;27;9004;-84
2021/10/10 13:36:23;;;;;;;;;21.67;19.33;;;;;;;;5124769;27;8818;-84
2021/10/10 13:38:49;;;;;;;;;23.67;21.67;;;;;;;;5126206;27;8823;-85
2021/10/10 13:41:14;;;;;;;;;21.67;21.67;;;;;;;;5122594;27;8841;-83
2021/10/10 13:43:39;;;;;;;;;22.00;21.00;;;;;;;;5125404;27;8789;-84
2021/10/10 13:46:06;;;;;;;;;23.67;23.33;;;;;;;;5123823;27;9452;-81
2021/10/10 13:48:33;;;;;;;;;27.00;26.25;;;;;;;;5118341;27;8799;-83
2021/10/10 13:50:58;;;;;;;;;21.00;19.25;;;;;;;;5125392;27;8732;-82
2021/10/10 13:53:24;;;;;;;;;27.33;24.00;;;;;;;;5117793;27;8936;-82
2021/10/10 13:55:49;;;;;;;;;25.33;23.67;;;;;;;;5121287;27;8949;-81
2021/10/10 13:58:16;;;;;;;;;23.33;22.00;;;;;;;;5117144;27;8803;-79
2021/10/10 14:00:43;;;;;;;;;22.25;22.25;;;;;;;;5116547;27;8803;-80
2021/10/10 14:03:09;;;;;;;;;25.25;23.75;;;;;;;;5118155;27;9917;-82
2021/10/10 14:05:34;;;;;;;;;28.00;28.00;;;;;;;;5119722;27;8949;-82
2021/10/10 14:08:00;;;;;;;;;24.00;24.00;;;;;;;;5119919;27;8814;-81
2021/10/10 14:10:25;;;;;;;;;25.00;23.33;;;;;;;;5115337;27;8895;-81
2021/10/10 14:12:51;;;;;;;;;25.33;23.67;;;;;;;;5120459;27;8886;-80
2021/10/10 14:15:16;;;;;;;;;24.67;24.67;;;;;;;;5119055;27;8849;-80
2021/10/10 14:17:41;;;;;;;;;30.67;29.00;;;;;;;;5130133;27;8800;-79
2021/10/10 14:20:07;;;;;;;;;25.67;24.33;;;;;;;;5119972;27;8857;-78
2021/10/10 14:22:32;;;;;;;;;27.67;25.00;;;;;;;;5121324;27;8920;-80
2021/10/10 14:24:57;;;;;;;;;24.67;24.33;;;;;;;;5115557;27;8853;-79
2021/10/10 14:27:23;;;;;;;;;28.00;24.00;;;;;;;;5113742;27;8803;-79
2021/10/10 14:29:48;;;;;;;;;29.00;29.00;;;;;;;;5122288;27;8817;-80
2021/10/10 14:32:13;;;;;;;;;29.33;28.00;;;;;;;;5130455;27;8811;-82
2021/10/10 14:34:38;;;;;;;;;27.00;26.67;;;;;;;;5115766;27;8838;-82
2021/10/10 14:37:04;;;;;;;;;24.00;23.33;;;;;;;;5116978;27;8791;-81
2021/10/10 14:39:32;;;;;;;;;34.33;31.33;;;;;;;;5119772;27;8814;-84
2021/10/10 14:42:03;;;;;;;;;30.50;28.75;;;;;;;;5119665;27;8868;-82
2021/10/10 14:44:45;;;;;;;;;28.75;28.00;;;;;;;;5118594;27;8827;-78
2021/10/10 14:49:37;;;;;;;;;30.67;29.33;;;;;;;;5118191;27;8810;-79
2021/10/10 14:52:05;;;;;;;;;32.00;29.67;;;;;;;;5122018;27;8865;-79
2021/10/10 14:54:31;;;;;;;;;31.50;29.50;;;;;;;;5120176;27;8743;-80